sensor_id;sensor_type;location;lat;lon;timestamp;pressure;altitude;pressure_sealevel;temperature
68510;BMP180;55512;50.102;19.958;2023-11-19T00:00:11;99170.40;;;2.32
68510;BMP180;55512;50.102;19.958;2023-11-19T00:02:39;99161.80;;;2.30
68510;BMP180;55512;50.102;19.958;2023-11-19T00:05:05;99163.40;;;2.40
68510;BMP180;55512;50.102;19.958;2023-11-19T00:07:35;99156.40;;;2.40
68510;BMP180;55512;50.102;19.958;2023-11-19T00:10:02;99154.80;;;2.40
68510;BMP180;55512;50.102;19.958;2023-11-19T00:12:32;99154.80;;;2.40
68510;BMP180;55512;50.102;19.958;2023-11-19T00:14:57;99156.40;;;2.40
68510;BMP180;55512;50.102;19.958;2023-11-19T00:17:23;99152.60;;;2.40
68510;BMP180;55512;50.102;19.958;2023-11-19T00:19:48;99147.60;;;2.40
68510;BMP180;55512;50.102;19.958;2023-11-19T00:22:17;99146.20;;;2.40
68510;BMP180;55512;50.102;19.958;2023-11-19T00:24:42;99145.80;;;2.40
68510;BMP180;55512;50.102;19.958;2023-11-19T00:27:07;99150.40;;;2.40
68510;BMP180;55512;50.102;19.958;2023-11-19T00:29:33;99146.80;;;2.40
68510;BMP180;55512;50.102;19.958;2023-11-19T00:31:58;99147.20;;;2.40
68510;BMP180;55512;50.102;19.958;2023-11-19T00:34:24;99143.20;;;2.40
68510;BMP180;55512;50.102;19.958;2023-11-19T00:36:49;99137.00;;;2.40
68510;BMP180;55512;50.102;19.958;2023-11-19T00:39:15;99129.00;;;2.40
68510;BMP180;55512;50.102;19.958;2023-11-19T00:41:41;99128.60;;;2.40
68510;BMP180;55512;50.102;19.958;2023-11-19T00:44:06;99115.40;;;2.40
68510;BMP180;55512;50.102;19.958;2023-11-19T00:46:32;99108.00;;;2.40
68510;BMP180;55512;50.102;19.958;2023-11-19T00:48:58;99109.00;;;2.40
68510;BMP180;55512;50.102;19.958;2023-11-19T00:51:25;99108.80;;;2.40
68510;BMP180;55512;50.102;19.958;2023-11-19T00:53:52;99101.60;;;2.40
68510;BMP180;55512;50.102;19.958;2023-11-19T00:56:19;99097.20;;;2.40
68510;BMP180;55512;50.102;19.958;2023-11-19T00:58:45;99097.40;;;2.40
68510;BMP180;55512;50.102;19.958;2023-11-19T01:01:13;99095.20;;;2.30
68510;BMP180;55512;50.102;19.958;2023-11-19T01:03:39;99088.80;;;2.30
68510;BMP180;55512;50.102;19.958;2023-11-19T01:06:04;99086.00;;;2.30
68510;BMP180;55512;50.102;19.958;2023-11-19T01:08:30;99085.80;;;2.30
68510;BMP180;55512;50.102;19.958;2023-11-19T01:10:56;99083.80;;;2.30
68510;BMP180;55512;50.102;19.958;2023-11-19T01:13:21;99084.20;;;2.30
68510;BMP180;55512;50.102;19.958;2023-11-19T01:15:46;99082.60;;;2.30
68510;BMP180;55512;50.102;19.958;2023-11-19T01:18:13;99077.80;;;2.32
68510;BMP180;55512;50.102;19.958;2023-11-19T01:20:38;99087.20;;;2.38
68510;BMP180;55512;50.102;19.958;2023-11-19T01:23:04;99087.00;;;2.38
68510;BMP180;55512;50.102;19.958;2023-11-19T01:25:30;99080.80;;;2.36
68510;BMP180;55512;50.102;19.958;2023-11-19T01:27:55;99077.40;;;2.34
68510;BMP180;55512;50.102;19.958;2023-11-19T01:30:24;99080.20;;;2.38
68510;BMP180;55512;50.102;19.958;2023-11-19T01:32:50;99084.60;;;2.40
68510;BMP180;55512;50.102;19.958;2023-11-19T01:35:15;99089.40;;;2.40
68510;BMP180;55512;50.102;19.958;2023-11-19T01:37:40;99077.80;;;2.40
68510;BMP180;55512;50.102;19.958;2023-11-19T01:40:07;99076.20;;;2.40
68510;BMP180;55512;50.102;19.958;2023-11-19T01:42:37;99079.80;;;2.40
68510;BMP180;55512;50.102;19.958;2023-11-19T01:45:04;99073.80;;;2.40
68510;BMP180;55512;50.102;19.958;2023-11-19T01:47:32;99072.00;;;2.40
68510;BMP180;55512;50.102;19.958;2023-11-19T01:49:59;99067.80;;;2.40
68510;BMP180;55512;50.102;19.958;2023-11-19T01:52:25;99064.80;;;2.40
68510;BMP180;55512;50.102;19.958;2023-11-19T01:54:53;99056.80;;;2.40
68510;BMP180;55512;50.102;19.958;2023-11-19T01:57:22;99053.60;;;2.40
68510;BMP180;55512;50.102;19.958;2023-11-19T01:59:51;99050.60;;;2.32
68510;BMP180;55512;50.102;19.958;2023-11-19T02:02:18;99051.80;;;2.34
68510;BMP180;55512;50.102;19.958;2023-11-19T02:04:49;99042.40;;;2.30
68510;BMP180;55512;50.102;19.958;2023-11-19T02:07:15;99040.40;;;2.30
68510;BMP180;55512;50.102;19.958;2023-11-19T02:09:43;99037.00;;;2.30
68510;BMP180;55512;50.102;19.958;2023-11-19T02:12:10;99038.20;;;2.30
68510;BMP180;55512;50.102;19.958;2023-11-19T02:14:38;99033.60;;;2.38
68510;BMP180;55512;50.102;19.958;2023-11-19T02:17:05;99025.80;;;2.40
68510;BMP180;55512;50.102;19.958;2023-11-19T02:19:30;99025.00;;;2.40
68510;BMP180;55512;50.102;19.958;2023-11-19T02:21:55;99024.20;;;2.40
68510;BMP180;55512;50.102;19.958;2023-11-19T02:24:22;99014.40;;;2.40
68510;BMP180;55512;50.102;19.958;2023-11-19T02:27:10;99005.20;;;2.40
68510;BMP180;55512;50.102;19.958;2023-11-19T02:29:40;98996.00;;;2.40
68510;BMP180;55512;50.102;19.958;2023-11-19T02:32:06;98983.20;;;2.40
68510;BMP180;55512;50.102;19.958;2023-11-19T02:34:34;98979.60;;;2.40
68510;BMP180;55512;50.102;19.958;2023-11-19T02:37:00;98964.00;;;2.40
68510;BMP180;55512;50.102;19.958;2023-11-19T02:39:26;98966.20;;;2.40
68510;BMP180;55512;50.102;19.958;2023-11-19T02:41:51;98962.20;;;2.44
68510;BMP180;55512;50.102;19.958;2023-11-19T02:44:18;98955.20;;;2.46
68510;BMP180;55512;50.102;19.958;2023-11-19T02:46:44;98948.60;;;2.50
68510;BMP180;55512;50.102;19.958;2023-11-19T02:49:09;98948.60;;;2.50
68510;BMP180;55512;50.102;19.958;2023-11-19T02:51:35;98942.20;;;2.48
68510;BMP180;55512;50.102;19.958;2023-11-19T02:54:01;98945.40;;;2.40
68510;BMP180;55512;50.102;19.958;2023-11-19T02:56:29;98944.20;;;2.44
68510;BMP180;55512;50.102;19.958;2023-11-19T02:58:59;98932.80;;;2.42
68510;BMP180;55512;50.102;19.958;2023-11-19T03:01:28;98926.80;;;2.44
68510;BMP180;55512;50.102;19.958;2023-11-19T03:04:01;98921.20;;;2.48
68510;BMP180;55512;50.102;19.958;2023-11-19T03:06:27;98911.40;;;2.44
68510;BMP180;55512;50.102;19.958;2023-11-19T03:08:57;98912.40;;;2.42
68510;BMP180;55512;50.102;19.958;2023-11-19T03:11:22;98905.60;;;2.40
68510;BMP180;55512;50.102;19.958;2023-11-19T03:13:48;98891.00;;;2.40
68510;BMP180;55512;50.102;19.958;2023-11-19T03:16:13;98890.40;;;2.50
68510;BMP180;55512;50.102;19.958;2023-11-19T03:18:39;98888.00;;;2.48
68510;BMP180;55512;50.102;19.958;2023-11-19T03:21:07;98883.20;;;2.50
68510;BMP180;55512;50.102;19.958;2023-11-19T03:23:34;98874.20;;;2.50
68510;BMP180;55512;50.102;19.958;2023-11-19T03:26:00;98871.40;;;2.50
68510;BMP180;55512;50.102;19.958;2023-11-19T03:28:28;98870.60;;;2.50
68510;BMP180;55512;50.102;19.958;2023-11-19T03:30:54;98869.20;;;2.50
68510;BMP180;55512;50.102;19.958;2023-11-19T03:33:20;98860.80;;;2.50
68510;BMP180;55512;50.102;19.958;2023-11-19T03:35:45;98853.00;;;2.50
68510;BMP180;55512;50.102;19.958;2023-11-19T03:38:11;98851.20;;;2.50
68510;BMP180;55512;50.102;19.958;2023-11-19T03:40:36;98854.40;;;2.50
68510;BMP180;55512;50.102;19.958;2023-11-19T03:43:03;98859.40;;;2.50
68510;BMP180;55512;50.102;19.958;2023-11-19T03:45:29;98857.60;;;2.50
68510;BMP180;55512;50.102;19.958;2023-11-19T03:47:54;98851.40;;;2.50
68510;BMP180;55512;50.102;19.958;2023-11-19T03:50:20;98849.80;;;2.50
68510;BMP180;55512;50.102;19.958;2023-11-19T03:52:47;98846.60;;;2.50
68510;BMP180;55512;50.102;19.958;2023-11-19T03:55:13;98842.00;;;2.50
68510;BMP180;55512;50.102;19.958;2023-11-19T03:57:39;98835.20;;;2.54
68510;BMP180;55512;50.102;19.958;2023-11-19T04:00:05;98823.40;;;2.50
68510;BMP180;55512;50.102;19.958;2023-11-19T04:02:36;98820.80;;;2.56
68510;BMP180;55512;50.102;19.958;2023-11-19T04:05:02;98813.60;;;2.60
68510;BMP180;55512;50.102;19.958;2023-11-19T04:07:30;98800.40;;;2.60
68510;BMP180;55512;50.102;19.958;2023-11-19T04:09:55;98789.40;;;2.60
68510;BMP180;55512;50.102;19.958;2023-11-19T04:12:21;98798.20;;;2.60
68510;BMP180;55512;50.102;19.958;2023-11-19T04:14:47;98802.00;;;2.60
68510;BMP180;55512;50.102;19.958;2023-11-19T04:17:12;98804.20;;;2.60
68510;BMP180;55512;50.102;19.958;2023-11-19T04:19:38;98797.20;;;2.60
68510;BMP180;55512;50.102;19.958;2023-11-19T04:22:09;98791.00;;;2.60
68510;BMP180;55512;50.102;19.958;2023-11-19T04:24:35;98792.00;;;2.60
68510;BMP180;55512;50.102;19.958;2023-11-19T04:27:00;98789.00;;;2.60
68510;BMP180;55512;50.102;19.958;2023-11-19T04:29:26;98776.80;;;2.60
68510;BMP180;55512;50.102;19.958;2023-11-19T04:31:51;98777.80;;;2.60
68510;BMP180;55512;50.102;19.958;2023-11-19T04:34:17;98780.40;;;2.60
68510;BMP180;55512;50.102;19.958;2023-11-19T04:36:42;98776.40;;;2.60
68510;BMP180;55512;50.102;19.958;2023-11-19T04:39:09;98775.20;;;2.60
68510;BMP180;55512;50.102;19.958;2023-11-19T04:41:35;98772.60;;;2.60
68510;BMP180;55512;50.102;19.958;2023-11-19T04:44:02;98768.80;;;2.60
68510;BMP180;55512;50.102;19.958;2023-11-19T04:46:27;98752.20;;;2.60
68510;BMP180;55512;50.102;19.958;2023-11-19T04:48:52;98737.40;;;2.60
68510;BMP180;55512;50.102;19.958;2023-11-19T04:51:18;98732.80;;;2.60
68510;BMP180;55512;50.102;19.958;2023-11-19T04:53:43;98737.20;;;2.60
68510;BMP180;55512;50.102;19.958;2023-11-19T04:56:12;98739.20;;;2.60
68510;BMP180;55512;50.102;19.958;2023-11-19T04:58:38;98732.40;;;2.60
68510;BMP180;55512;50.102;19.958;2023-11-19T05:01:04;98727.00;;;2.60
68510;BMP180;55512;50.102;19.958;2023-11-19T05:03:31;98725.80;;;2.60
68510;BMP180;55512;50.102;19.958;2023-11-19T05:05:57;98731.40;;;2.60
68510;BMP180;55512;50.102;19.958;2023-11-19T05:08:23;98740.40;;;2.60
68510;BMP180;55512;50.102;19.958;2023-11-19T05:10:48;98729.80;;;2.60
68510;BMP180;55512;50.102;19.958;2023-11-19T05:13:14;98725.20;;;2.60
68510;BMP180;55512;50.102;19.958;2023-11-19T05:15:40;98729.40;;;2.60
68510;BMP180;55512;50.102;19.958;2023-11-19T05:18:05;98725.80;;;2.60
68510;BMP180;55512;50.102;19.958;2023-11-19T05:20:31;98722.40;;;2.60
68510;BMP180;55512;50.102;19.958;2023-11-19T05:22:56;98730.40;;;2.60
68510;BMP180;55512;50.102;19.958;2023-11-19T05:25:22;98730.00;;;2.60
68510;BMP180;55512;50.102;19.958;2023-11-19T05:27:47;98730.60;;;2.60
68510;BMP180;55512;50.102;19.958;2023-11-19T05:30:13;98730.00;;;2.60
68510;BMP180;55512;50.102;19.958;2023-11-19T05:32:38;98732.20;;;2.60
68510;BMP180;55512;50.102;19.958;2023-11-19T05:35:04;98733.60;;;2.60
68510;BMP180;55512;50.102;19.958;2023-11-19T05:37:30;98725.40;;;2.60
68510;BMP180;55512;50.102;19.958;2023-11-19T05:39:55;98722.00;;;2.60
68510;BMP180;55512;50.102;19.958;2023-11-19T05:42:21;98719.60;;;2.60
68510;BMP180;55512;50.102;19.958;2023-11-19T05:44:46;98717.40;;;2.52
68510;BMP180;55512;50.102;19.958;2023-11-19T05:47:12;98718.40;;;2.50
68510;BMP180;55512;50.102;19.958;2023-11-19T05:49:37;98718.40;;;2.50
68510;BMP180;55512;50.102;19.958;2023-11-19T05:52:04;98722.40;;;2.42
68510;BMP180;55512;50.102;19.958;2023-11-19T05:54:32;98716.60;;;2.40
68510;BMP180;55512;50.102;19.958;2023-11-19T05:57:04;98703.60;;;2.50
68510;BMP180;55512;50.102;19.958;2023-11-19T05:59:30;98694.20;;;2.50
68510;BMP180;55512;50.102;19.958;2023-11-19T06:01:57;98681.60;;;2.50
68510;BMP180;55512;50.102;19.958;2023-11-19T06:04:23;98683.40;;;2.46
68510;BMP180;55512;50.102;19.958;2023-11-19T06:06:48;98685.60;;;2.42
68510;BMP180;55512;50.102;19.958;2023-11-19T06:09:13;98678.80;;;2.40
68510;BMP180;55512;50.102;19.958;2023-11-19T06:11:39;98672.20;;;2.40
68510;BMP180;55512;50.102;19.958;2023-11-19T06:14:06;98671.20;;;2.40
68510;BMP180;55512;50.102;19.958;2023-11-19T06:16:32;98685.40;;;2.40
68510;BMP180;55512;50.102;19.958;2023-11-19T06:18:58;98680.40;;;2.40
68510;BMP180;55512;50.102;19.958;2023-11-19T06:21:23;98674.40;;;2.40
68510;BMP180;55512;50.102;19.958;2023-11-19T06:23:50;98676.20;;;2.40
68510;BMP180;55512;50.102;19.958;2023-11-19T06:26:17;98670.80;;;2.40
68510;BMP180;55512;50.102;19.958;2023-11-19T06:28:43;98663.40;;;2.40
68510;BMP180;55512;50.102;19.958;2023-11-19T06:31:09;98664.80;;;2.40
68510;BMP180;55512;50.102;19.958;2023-11-19T06:33:34;98662.00;;;2.40
68510;BMP180;55512;50.102;19.958;2023-11-19T06:36:00;98667.40;;;2.40
68510;BMP180;55512;50.102;19.958;2023-11-19T06:38:25;98676.60;;;2.40
68510;BMP180;55512;50.102;19.958;2023-11-19T06:40:50;98678.60;;;2.50
68510;BMP180;55512;50.102;19.958;2023-11-19T06:43:16;98675.20;;;2.50
68510;BMP180;55512;50.102;19.958;2023-11-19T06:45:41;98680.40;;;2.50
68510;BMP180;55512;50.102;19.958;2023-11-19T06:48:07;98680.60;;;2.50
68510;BMP180;55512;50.102;19.958;2023-11-19T06:50:32;98672.00;;;2.54
68510;BMP180;55512;50.102;19.958;2023-11-19T06:52:58;98664.20;;;2.60
68510;BMP180;55512;50.102;19.958;2023-11-19T06:55:24;98665.20;;;2.60
68510;BMP180;55512;50.102;19.958;2023-11-19T06:57:49;98661.80;;;2.60
68510;BMP180;55512;50.102;19.958;2023-11-19T07:00:15;98663.60;;;2.60
68510;BMP180;55512;50.102;19.958;2023-11-19T07:02:42;98652.80;;;2.60
68510;BMP180;55512;50.102;19.958;2023-11-19T07:05:07;98646.20;;;2.60
68510;BMP180;55512;50.102;19.958;2023-11-19T07:07:33;98637.80;;;2.64
68510;BMP180;55512;50.102;19.958;2023-11-19T07:09:59;98640.40;;;2.70
68510;BMP180;55512;50.102;19.958;2023-11-19T07:12:24;98638.20;;;2.70
68510;BMP180;55512;50.102;19.958;2023-11-19T07:14:53;98644.80;;;2.70
68510;BMP180;55512;50.102;19.958;2023-11-19T07:17:20;98624.80;;;2.74
68510;BMP180;55512;50.102;19.958;2023-11-19T07:19:47;98613.80;;;2.80
68510;BMP180;55512;50.102;19.958;2023-11-19T07:22:14;98608.80;;;2.80
68510;BMP180;55512;50.102;19.958;2023-11-19T07:24:40;98597.00;;;2.90
68510;BMP180;55512;50.102;19.958;2023-11-19T07:27:07;98592.60;;;2.90
68510;BMP180;55512;50.102;19.958;2023-11-19T07:29:33;98590.20;;;3.00
68510;BMP180;55512;50.102;19.958;2023-11-19T07:31:59;98598.60;;;3.00
68510;BMP180;55512;50.102;19.958;2023-11-19T07:34:26;98594.60;;;3.00
68510;BMP180;55512;50.102;19.958;2023-11-19T07:36:52;98602.00;;;3.00
68510;BMP180;55512;50.102;19.958;2023-11-19T07:39:17;98609.60;;;3.02
68510;BMP180;55512;50.102;19.958;2023-11-19T07:41:43;98618.60;;;3.10
68510;BMP180;55512;50.102;19.958;2023-11-19T07:44:08;98622.60;;;3.10
68510;BMP180;55512;50.102;19.958;2023-11-19T07:46:33;98621.40;;;3.10
68510;BMP180;55512;50.102;19.958;2023-11-19T07:48:59;98616.60;;;3.20
68510;BMP180;55512;50.102;19.958;2023-11-19T07:51:24;98618.40;;;3.20
68510;BMP180;55512;50.102;19.958;2023-11-19T07:53:50;98618.40;;;3.30
68510;BMP180;55512;50.102;19.958;2023-11-19T07:56:15;98604.60;;;3.30
68510;BMP180;55512;50.102;19.958;2023-11-19T07:58:41;98591.40;;;3.34
68510;BMP180;55512;50.102;19.958;2023-11-19T08:01:07;98594.20;;;3.40
68510;BMP180;55512;50.102;19.958;2023-11-19T08:03:32;98592.60;;;3.40
68510;BMP180;55512;50.102;19.958;2023-11-19T08:06:03;98581.20;;;3.44
68510;BMP180;55512;50.102;19.958;2023-11-19T08:08:29;98568.80;;;3.50
68510;BMP180;55512;50.102;19.958;2023-11-19T08:10:56;98574.40;;;3.50
68510;BMP180;55512;50.102;19.958;2023-11-19T08:13:23;98572.80;;;3.50
68510;BMP180;55512;50.102;19.958;2023-11-19T08:15:49;98572.20;;;3.50
68510;BMP180;55512;50.102;19.958;2023-11-19T08:18:15;98563.40;;;3.60
68510;BMP180;55512;50.102;19.958;2023-11-19T08:20:40;98566.00;;;3.60
68510;BMP180;55512;50.102;19.958;2023-11-19T08:23:06;98559.40;;;3.66
68510;BMP180;55512;50.102;19.958;2023-11-19T08:25:32;98553.60;;;3.70
68510;BMP180;55512;50.102;19.958;2023-11-19T08:27:59;98545.00;;;3.70
68510;BMP180;55512;50.102;19.958;2023-11-19T08:30:25;98541.20;;;3.78
68510;BMP180;55512;50.102;19.958;2023-11-19T08:32:50;98527.20;;;3.80
68510;BMP180;55512;50.102;19.958;2023-11-19T08:35:16;98523.40;;;3.80
68510;BMP180;55512;50.102;19.958;2023-11-19T08:37:41;98527.80;;;3.80
68510;BMP180;55512;50.102;19.958;2023-11-19T08:40:08;98531.00;;;3.90
68510;BMP180;55512;50.102;19.958;2023-11-19T08:42:34;98538.60;;;3.90
68510;BMP180;55512;50.102;19.958;2023-11-19T08:45:00;98538.40;;;3.90
68510;BMP180;55512;50.102;19.958;2023-11-19T08:47:25;98526.80;;;3.98
68510;BMP180;55512;50.102;19.958;2023-11-19T08:49:51;98523.80;;;4.00
68510;BMP180;55512;50.102;19.958;2023-11-19T08:52:20;98525.40;;;4.06
68510;BMP180;55512;50.102;19.958;2023-11-19T08:54:46;98530.60;;;4.10
68510;BMP180;55512;50.102;19.958;2023-11-19T08:57:11;98521.20;;;4.12
68510;BMP180;55512;50.102;19.958;2023-11-19T08:59:37;98522.20;;;4.16
68510;BMP180;55512;50.102;19.958;2023-11-19T09:02:05;98519.20;;;4.20
68510;BMP180;55512;50.102;19.958;2023-11-19T09:04:32;98519.20;;;4.20
68510;BMP180;55512;50.102;19.958;2023-11-19T09:06:58;98521.00;;;4.30
68510;BMP180;55512;50.102;19.958;2023-11-19T09:09:23;98515.20;;;4.30
68510;BMP180;55512;50.102;19.958;2023-11-19T09:11:49;98520.00;;;4.30
68510;BMP180;55512;50.102;19.958;2023-11-19T09:14:14;98509.20;;;4.30
68510;BMP180;55512;50.102;19.958;2023-11-19T09:16:40;98508.00;;;4.30
68510;BMP180;55512;50.102;19.958;2023-11-19T09:19:06;98503.80;;;4.40
68510;BMP180;55512;50.102;19.958;2023-11-19T09:21:31;98501.20;;;4.40
68510;BMP180;55512;50.102;19.958;2023-11-19T09:23:57;98499.60;;;4.40
68510;BMP180;55512;50.102;19.958;2023-11-19T09:26:23;98488.40;;;4.48
68510;BMP180;55512;50.102;19.958;2023-11-19T09:28:48;98486.60;;;4.50
68510;BMP180;55512;50.102;19.958;2023-11-19T09:31:18;98476.60;;;4.50
68510;BMP180;55512;50.102;19.958;2023-11-19T09:33:44;98466.80;;;4.50
68510;BMP180;55512;50.102;19.958;2023-11-19T09:36:12;98460.80;;;4.50
68510;BMP180;55512;50.102;19.958;2023-11-19T09:38:45;98449.80;;;4.50
68510;BMP180;55512;50.102;19.958;2023-11-19T09:41:11;98444.60;;;4.54
68510;BMP180;55512;50.102;19.958;2023-11-19T09:43:40;98441.00;;;4.60
68510;BMP180;55512;50.102;19.958;2023-11-19T09:46:09;98434.40;;;4.60
68510;BMP180;55512;50.102;19.958;2023-11-19T09:48:38;98419.40;;;4.60
68510;BMP180;55512;50.102;19.958;2023-11-19T09:51:07;98414.40;;;4.60
68510;BMP180;55512;50.102;19.958;2023-11-19T09:53:35;98425.20;;;4.68
68510;BMP180;55512;50.102;19.958;2023-11-19T09:56:03;98431.80;;;4.70
68510;BMP180;55512;50.102;19.958;2023-11-19T09:58:32;98434.00;;;4.72
68510;BMP180;55512;50.102;19.958;2023-11-19T10:00:59;98436.60;;;4.80
68510;BMP180;55512;50.102;19.958;2023-11-19T10:03:26;98429.60;;;4.80
68510;BMP180;55512;50.102;19.958;2023-11-19T10:05:55;98423.00;;;4.90
68510;BMP180;55512;50.102;19.958;2023-11-19T10:08:21;98422.40;;;4.90
68510;BMP180;55512;50.102;19.958;2023-11-19T10:10:47;98419.60;;;5.00
68510;BMP180;55512;50.102;19.958;2023-11-19T10:13:13;98411.80;;;5.00
68510;BMP180;55512;50.102;19.958;2023-11-19T10:15:40;98400.20;;;5.10
68510;BMP180;55512;50.102;19.958;2023-11-19T10:18:06;98398.40;;;5.10
68510;BMP180;55512;50.102;19.958;2023-11-19T10:20:40;98401.40;;;5.20
68510;BMP180;55512;50.102;19.958;2023-11-19T10:23:06;98392.80;;;5.30
68510;BMP180;55512;50.102;19.958;2023-11-19T10:25:33;98386.60;;;5.34
68510;BMP180;55512;50.102;19.958;2023-11-19T10:28:00;98386.00;;;5.40
68510;BMP180;55512;50.102;19.958;2023-11-19T10:30:28;98388.40;;;5.40
68510;BMP180;55512;50.102;19.958;2023-11-19T10:35:35;98378.60;;;5.40
68510;BMP180;55512;50.102;19.958;2023-11-19T10:38:14;98377.20;;;5.40
68510;BMP180;55512;50.102;19.958;2023-11-19T10:40:43;98355.20;;;5.46
68510;BMP180;55512;50.102;19.958;2023-11-19T10:43:09;98349.20;;;5.50
68510;BMP180;55512;50.102;19.958;2023-11-19T10:45:36;98342.80;;;5.46
68510;BMP180;55512;50.102;19.958;2023-11-19T10:48:03;98336.80;;;5.48
68510;BMP180;55512;50.102;19.958;2023-11-19T10:50:36;98329.80;;;5.50
68510;BMP180;55512;50.102;19.958;2023-11-19T10:53:04;98329.40;;;5.50
68510;BMP180;55512;50.102;19.958;2023-11-19T10:55:32;98320.40;;;5.50
68510;BMP180;55512;50.102;19.958;2023-11-19T10:58:25;98308.40;;;5.50
68510;BMP180;55512;50.102;19.958;2023-11-19T11:01:02;98300.00;;;5.58
68510;BMP180;55512;50.102;19.958;2023-11-19T11:03:39;98295.80;;;5.60
68510;BMP180;55512;50.102;19.958;2023-11-19T11:06:05;98301.40;;;5.60
68510;BMP180;55512;50.102;19.958;2023-11-19T11:08:31;98299.20;;;5.58
68510;BMP180;55512;50.102;19.958;2023-11-19T11:10:57;98290.20;;;5.60
68510;BMP180;55512;50.102;19.958;2023-11-19T11:13:25;98281.60;;;5.60
68510;BMP180;55512;50.102;19.958;2023-11-19T11:15:55;98275.60;;;5.60
68510;BMP180;55512;50.102;19.958;2023-11-19T11:18:21;98274.60;;;5.60
68510;BMP180;55512;50.102;19.958;2023-11-19T11:20:49;98265.60;;;5.60
68510;BMP180;55512;50.102;19.958;2023-11-19T11:24:07;98258.20;;;5.70
68510;BMP180;55512;50.102;19.958;2023-11-19T11:33:04;98240.20;;;5.70
68510;BMP180;55512;50.102;19.958;2023-11-19T11:35:53;98234.40;;;5.70
68510;BMP180;55512;50.102;19.958;2023-11-19T11:38:23;98239.60;;;5.70
68510;BMP180;55512;50.102;19.958;2023-11-19T11:41:24;98229.80;;;5.70
68510;BMP180;55512;50.102;19.958;2023-11-19T11:43:54;98221.60;;;5.70
68510;BMP180;55512;50.102;19.958;2023-11-19T11:49:06;98204.40;;;5.70
68510;BMP180;55512;50.102;19.958;2023-11-19T11:54:30;98226.00;;;5.66
68510;BMP180;55512;50.102;19.958;2023-11-19T11:57:09;98221.80;;;5.60
68510;BMP180;55512;50.102;19.958;2023-11-19T12:02:09;98215.40;;;5.60
68510;BMP180;55512;50.102;19.958;2023-11-19T12:04:35;98204.20;;;5.60
68510;BMP180;55512;50.102;19.958;2023-11-19T12:07:21;98203.80;;;5.60
68510;BMP180;55512;50.102;19.958;2023-11-19T12:10:06;98197.40;;;5.60
68510;BMP180;55512;50.102;19.958;2023-11-19T12:12:39;98201.60;;;5.60
68510;BMP180;55512;50.102;19.958;2023-11-19T12:15:09;98192.80;;;5.52
68510;BMP180;55512;50.102;19.958;2023-11-19T12:17:47;98185.40;;;5.50
68510;BMP180;55512;50.102;19.958;2023-11-19T12:20:21;98176.40;;;5.50
68510;BMP180;55512;50.102;19.958;2023-11-19T12:22:48;98165.60;;;5.40
68510;BMP180;55512;50.102;19.958;2023-11-19T12:25:16;98160.80;;;5.40
68510;BMP180;55512;50.102;19.958;2023-11-19T12:27:44;98161.20;;;5.40
68510;BMP180;55512;50.102;19.958;2023-11-19T12:30:11;98165.20;;;5.32
68510;BMP180;55512;50.102;19.958;2023-11-19T12:32:45;98153.20;;;5.30
68510;BMP180;55512;50.102;19.958;2023-11-19T12:35:12;98144.80;;;5.30
68510;BMP180;55512;50.102;19.958;2023-11-19T12:37:46;98140.00;;;5.20
68510;BMP180;55512;50.102;19.958;2023-11-19T12:40:18;98138.80;;;5.20
68510;BMP180;55512;50.102;19.958;2023-11-19T12:42:56;98139.20;;;5.10
68510;BMP180;55512;50.102;19.958;2023-11-19T12:45:22;98135.60;;;5.10
68510;BMP180;55512;50.102;19.958;2023-11-19T12:47:49;98127.20;;;5.00
68510;BMP180;55512;50.102;19.958;2023-11-19T12:50:18;98128.00;;;5.00
68510;BMP180;55512;50.102;19.958;2023-11-19T12:52:58;98122.20;;;4.90
68510;BMP180;55512;50.102;19.958;2023-11-19T12:55:26;98117.80;;;4.90
68510;BMP180;55512;50.102;19.958;2023-11-19T12:57:52;98112.00;;;4.80
68510;BMP180;55512;50.102;19.958;2023-11-19T13:00:22;98107.20;;;4.80
68510;BMP180;55512;50.102;19.958;2023-11-19T13:02:49;98101.80;;;4.80
68510;BMP180;55512;50.102;19.958;2023-11-19T13:05:33;98094.80;;;4.80
68510;BMP180;55512;50.102;19.958;2023-11-19T13:08:07;98102.80;;;4.70
68510;BMP180;55512;50.102;19.958;2023-11-19T13:10:51;98093.60;;;4.76
68510;BMP180;55512;50.102;19.958;2023-11-19T13:13:16;98095.00;;;4.80
68510;BMP180;55512;50.102;19.958;2023-11-19T13:15:42;98085.40;;;4.80
68510;BMP180;55512;50.102;19.958;2023-11-19T13:18:12;98081.60;;;4.80
68510;BMP180;55512;50.102;19.958;2023-11-19T13:20:38;98079.00;;;4.80
68510;BMP180;55512;50.102;19.958;2023-11-19T13:23:05;98078.20;;;4.80
68510;BMP180;55512;50.102;19.958;2023-11-19T13:25:32;98073.00;;;4.80
68510;BMP180;55512;50.102;19.958;2023-11-19T13:27:59;98076.80;;;4.78
68510;BMP180;55512;50.102;19.958;2023-11-19T13:30:25;98069.20;;;4.78
68510;BMP180;55512;50.102;19.958;2023-11-19T13:32:52;98064.80;;;4.72
68510;BMP180;55512;50.102;19.958;2023-11-19T13:35:18;98064.60;;;4.70
68510;BMP180;55512;50.102;19.958;2023-11-19T13:37:45;98063.40;;;4.70
68510;BMP180;55512;50.102;19.958;2023-11-19T13:40:12;98058.80;;;4.70
68510;BMP180;55512;50.102;19.958;2023-11-19T13:42:43;98059.40;;;4.60
68510;BMP180;55512;50.102;19.958;2023-11-19T13:45:14;98057.80;;;4.60
68510;BMP180;55512;50.102;19.958;2023-11-19T13:47:44;98057.20;;;4.60
68510;BMP180;55512;50.102;19.958;2023-11-19T13:50:11;98058.60;;;4.60
68510;BMP180;55512;50.102;19.958;2023-11-19T13:52:38;98060.60;;;4.60
68510;BMP180;55512;50.102;19.958;2023-11-19T13:55:06;98056.00;;;4.60
68510;BMP180;55512;50.102;19.958;2023-11-19T13:57:33;98054.80;;;4.60
68510;BMP180;55512;50.102;19.958;2023-11-19T14:00:00;98056.40;;;4.54
68510;BMP180;55512;50.102;19.958;2023-11-19T14:02:25;98057.40;;;4.52
68510;BMP180;55512;50.102;19.958;2023-11-19T14:04:50;98043.20;;;4.50
68510;BMP180;55512;50.102;19.958;2023-11-19T14:07:16;98050.80;;;4.50
68510;BMP180;55512;50.102;19.958;2023-11-19T14:09:42;98055.40;;;4.50
68510;BMP180;55512;50.102;19.958;2023-11-19T14:12:08;98058.40;;;4.50
68510;BMP180;55512;50.102;19.958;2023-11-19T14:14:35;98053.20;;;4.50
68510;BMP180;55512;50.102;19.958;2023-11-19T14:17:02;98051.20;;;4.50
68510;BMP180;55512;50.102;19.958;2023-11-19T14:19:28;98048.20;;;4.50
68510;BMP180;55512;50.102;19.958;2023-11-19T14:21:54;98040.20;;;4.50
68510;BMP180;55512;50.102;19.958;2023-11-19T14:24:19;98041.80;;;4.50
68510;BMP180;55512;50.102;19.958;2023-11-19T14:26:48;98039.80;;;4.50